sensor_id;sensor_type;location;lat;lon;timestamp;pressure;altitude;pressure_sealevel;temperature;humidity
39487;BME280;25173;50.430;18.926;2023-03-23T00:02:03;97749.81;;;14.42;54.22
39487;BME280;25173;50.430;18.926;2023-03-23T00:05:05;97750.63;;;14.42;54.53
39487;BME280;25173;50.430;18.926;2023-03-23T00:08:07;97738.34;;;14.40;54.55
39487;BME280;25173;50.430;18.926;2023-03-23T00:11:15;97744.94;;;14.38;54.50
39487;BME280;25173;50.430;18.926;2023-03-23T00:14:17;97743.28;;;14.37;54.68
39487;BME280;25173;50.430;18.926;2023-03-23T00:17:22;97737.31;;;14.35;54.64
39487;BME280;25173;50.430;18.926;2023-03-23T00:20:23;97739.53;;;14.33;54.67
39487;BME280;25173;50.430;18.926;2023-03-23T00:23:25;97742.88;;;14.30;54.68
39487;BME280;25173;50.430;18.926;2023-03-23T00:26:26;97740.16;;;14.30;54.77
39487;BME280;25173;50.430;18.926;2023-03-23T00:29:28;97743.69;;;14.31;54.68
39487;BME280;25173;50.430;18.926;2023-03-23T00:32:29;97737.03;;;14.23;54.87
39487;BME280;25173;50.430;18.926;2023-03-23T00:35:30;97740.69;;;14.19;54.87
39487;BME280;25173;50.430;18.926;2023-03-23T00:38:31;97732.31;;;14.15;55.13
39487;BME280;25173;50.430;18.926;2023-03-23T00:41:31;97724.69;;;14.12;55.14
39487;BME280;25173;50.430;18.926;2023-03-23T00:44:34;97737.34;;;14.08;55.21
39487;BME280;25173;50.430;18.926;2023-03-23T00:47:38;97726.72;;;14.07;55.35
39487;BME280;25173;50.430;18.926;2023-03-23T00:50:41;97729.25;;;14.03;55.25
39487;BME280;25173;50.430;18.926;2023-03-23T00:53:42;97718.44;;;13.98;55.32
39487;BME280;25173;50.430;18.926;2023-03-23T00:56:42;97715.19;;;13.96;55.54
39487;BME280;25173;50.430;18.926;2023-03-23T00:59:43;97706.47;;;13.94;55.64
39487;BME280;25173;50.430;18.926;2023-03-23T01:02:44;97708.72;;;13.92;55.69
39487;BME280;25173;50.430;18.926;2023-03-23T01:05:45;97703.03;;;13.88;55.81
39487;BME280;25173;50.430;18.926;2023-03-23T01:08:52;97697.03;;;13.86;55.91
39487;BME280;25173;50.430;18.926;2023-03-23T01:11:54;97697.66;;;13.83;55.84
39487;BME280;25173;50.430;18.926;2023-03-23T01:14:56;97698.56;;;13.79;56.04
39487;BME280;25173;50.430;18.926;2023-03-23T01:17:57;97703.84;;;13.75;56.13
39487;BME280;25173;50.430;18.926;2023-03-23T01:21:03;97698.69;;;13.74;56.32
39487;BME280;25173;50.430;18.926;2023-03-23T01:24:04;97704.97;;;13.74;56.33
39487;BME280;25173;50.430;18.926;2023-03-23T01:27:05;97705.28;;;13.73;56.36
39487;BME280;25173;50.430;18.926;2023-03-23T01:30:09;97705.91;;;13.70;56.52
39487;BME280;25173;50.430;18.926;2023-03-23T01:33:10;97711.03;;;13.71;56.50
39487;BME280;25173;50.430;18.926;2023-03-23T01:36:16;97705.47;;;13.76;56.59
39487;BME280;25173;50.430;18.926;2023-03-23T01:39:18;97696.97;;;13.78;56.39
39487;BME280;25173;50.430;18.926;2023-03-23T01:42:30;97701.00;;;13.80;56.61
39487;BME280;25173;50.430;18.926;2023-03-23T01:45:34;97689.75;;;13.82;56.79
39487;BME280;25173;50.430;18.926;2023-03-23T01:48:36;97694.00;;;13.88;56.38
39487;BME280;25173;50.430;18.926;2023-03-23T01:51:41;97683.56;;;13.90;56.46
39487;BME280;25173;50.430;18.926;2023-03-23T01:54:44;97682.97;;;13.93;56.43
39487;BME280;25173;50.430;18.926;2023-03-23T01:57:47;97688.91;;;13.95;56.35
39487;BME280;25173;50.430;18.926;2023-03-23T02:00:49;97677.97;;;13.95;56.46
39487;BME280;25173;50.430;18.926;2023-03-23T02:03:52;97681.00;;;13.93;56.53
39487;BME280;25173;50.430;18.926;2023-03-23T02:06:54;97675.22;;;13.95;56.43
39487;BME280;25173;50.430;18.926;2023-03-23T02:09:59;97681.81;;;13.94;56.39
39487;BME280;25173;50.430;18.926;2023-03-23T02:13:05;97672.78;;;13.93;56.47
39487;BME280;25173;50.430;18.926;2023-03-23T02:19:50;97677.88;;;13.86;56.70
39487;BME280;25173;50.430;18.926;2023-03-23T02:26:38;97676.59;;;13.84;56.59
39487;BME280;25173;50.430;18.926;2023-03-23T02:36:31;97651.75;;;13.80;56.63
39487;BME280;25173;50.430;18.926;2023-03-23T02:40:04;97660.25;;;13.79;56.88
39487;BME280;25173;50.430;18.926;2023-03-23T02:43:15;97667.84;;;13.82;56.63
39487;BME280;25173;50.430;18.926;2023-03-23T02:46:18;97661.28;;;13.83;56.53
39487;BME280;25173;50.430;18.926;2023-03-23T02:49:22;97664.81;;;13.83;56.51
39487;BME280;25173;50.430;18.926;2023-03-23T02:52:26;97661.88;;;13.80;56.61
39487;BME280;25173;50.430;18.926;2023-03-23T02:55:29;97664.13;;;13.78;56.61
39487;BME280;25173;50.430;18.926;2023-03-23T02:58:32;97657.50;;;13.79;56.57
39487;BME280;25173;50.430;18.926;2023-03-23T03:04:38;97647.59;;;13.83;56.52
39487;BME280;25173;50.430;18.926;2023-03-23T03:08:29;97639.56;;;13.86;56.60
39487;BME280;25173;50.430;18.926;2023-03-23T03:11:34;97641.00;;;13.84;56.46
39487;BME280;25173;50.430;18.926;2023-03-23T03:14:44;97653.06;;;13.83;56.49
39487;BME280;25173;50.430;18.926;2023-03-23T03:21:06;97647.28;;;13.84;56.44
39487;BME280;25173;50.430;18.926;2023-03-23T03:24:10;97642.63;;;13.85;56.45
39487;BME280;25173;50.430;18.926;2023-03-23T03:27:16;97641.00;;;13.84;56.49
39487;BME280;25173;50.430;18.926;2023-03-23T03:30:29;97633.91;;;13.83;56.96
39487;BME280;25173;50.430;18.926;2023-03-23T03:33:32;97645.44;;;13.80;56.34
39487;BME280;25173;50.430;18.926;2023-03-23T03:36:34;97645.16;;;13.81;56.37
39487;BME280;25173;50.430;18.926;2023-03-23T03:39:39;97646.47;;;13.84;56.37
39487;BME280;25173;50.430;18.926;2023-03-23T03:42:44;97652.13;;;13.87;56.31
39487;BME280;25173;50.430;18.926;2023-03-23T03:45:45;97654.06;;;13.87;56.26
39487;BME280;25173;50.430;18.926;2023-03-23T03:48:46;97649.69;;;13.86;56.30
39487;BME280;25173;50.430;18.926;2023-03-23T03:51:46;97660.03;;;13.89;56.37
39487;BME280;25173;50.430;18.926;2023-03-23T03:54:54;97659.22;;;13.88;56.31
39487;BME280;25173;50.430;18.926;2023-03-23T03:57:56;97647.47;;;13.88;56.28
39487;BME280;25173;50.430;18.926;2023-03-23T04:01:26;97663.38;;;13.86;56.24
39487;BME280;25173;50.430;18.926;2023-03-23T04:04:29;97659.66;;;13.82;56.20
39487;BME280;25173;50.430;18.926;2023-03-23T04:07:29;97658.66;;;13.78;56.29
39487;BME280;25173;50.430;18.926;2023-03-23T04:10:31;97660.59;;;13.77;56.26
39487;BME280;25173;50.430;18.926;2023-03-23T04:13:34;97658.75;;;13.73;56.27
39487;BME280;25173;50.430;18.926;2023-03-23T04:16:53;97654.19;;;13.68;56.40
39487;BME280;25173;50.430;18.926;2023-03-23T04:19:57;97655.44;;;13.62;56.38
39487;BME280;25173;50.430;18.926;2023-03-23T04:23:00;97649.16;;;13.62;56.47
39487;BME280;25173;50.430;18.926;2023-03-23T04:26:03;97636.59;;;13.60;56.41
39487;BME280;25173;50.430;18.926;2023-03-23T04:29:11;97641.53;;;13.58;56.39
39487;BME280;25173;50.430;18.926;2023-03-23T04:32:33;97632.63;;;13.53;56.56
39487;BME280;25173;50.430;18.926;2023-03-23T04:35:34;97631.72;;;13.44;56.66
39487;BME280;25173;50.430;18.926;2023-03-23T04:38:48;97628.41;;;13.33;56.88
39487;BME280;25173;50.430;18.926;2023-03-23T04:41:55;97636.69;;;13.28;56.94
39487;BME280;25173;50.430;18.926;2023-03-23T04:45:19;97631.84;;;13.25;57.04
39487;BME280;25173;50.430;18.926;2023-03-23T04:48:31;97631.34;;;13.23;57.22
39487;BME280;25173;50.430;18.926;2023-03-23T04:51:51;97636.28;;;13.21;57.25
39487;BME280;25173;50.430;18.926;2023-03-23T04:55:09;97649.16;;;13.20;57.32
39487;BME280;25173;50.430;18.926;2023-03-23T04:58:13;97629.53;;;13.18;57.38
39487;BME280;25173;50.430;18.926;2023-03-23T05:01:33;97632.56;;;13.17;57.41
39487;BME280;25173;50.430;18.926;2023-03-23T05:04:47;97628.50;;;13.14;57.53
39487;BME280;25173;50.430;18.926;2023-03-23T05:07:52;97623.03;;;13.14;57.48
39487;BME280;25173;50.430;18.926;2023-03-23T05:10:57;97631.94;;;13.20;57.55
39487;BME280;25173;50.430;18.926;2023-03-23T05:14:03;97632.34;;;13.27;57.62
39487;BME280;25173;50.430;18.926;2023-03-23T05:17:04;97637.09;;;13.35;57.53
39487;BME280;25173;50.430;18.926;2023-03-23T05:20:05;97630.31;;;13.46;57.41
39487;BME280;25173;50.430;18.926;2023-03-23T05:23:18;97631.31;;;13.50;57.34
39487;BME280;25173;50.430;18.926;2023-03-23T05:26:23;97640.53;;;13.54;57.34
39487;BME280;25173;50.430;18.926;2023-03-23T05:29:31;97640.81;;;13.67;57.22
39487;BME280;25173;50.430;18.926;2023-03-23T05:32:35;97642.84;;;13.75;57.13
39487;BME280;25173;50.430;18.926;2023-03-23T05:35:53;97640.50;;;13.82;56.93
39487;BME280;25173;50.430;18.926;2023-03-23T05:38:59;97641.69;;;13.89;56.76
39487;BME280;25173;50.430;18.926;2023-03-23T05:42:14;97641.56;;;13.94;56.60
39487;BME280;25173;50.430;18.926;2023-03-23T05:45:27;97653.41;;;14.04;56.44
39487;BME280;25173;50.430;18.926;2023-03-23T05:48:28;97652.38;;;14.13;56.38
39487;BME280;25173;50.430;18.926;2023-03-23T05:51:29;97655.50;;;14.20;56.26
39487;BME280;25173;50.430;18.926;2023-03-23T05:54:30;97650.56;;;14.31;55.88
39487;BME280;25173;50.430;18.926;2023-03-23T05:57:32;97656.13;;;14.40;55.72
39487;BME280;25173;50.430;18.926;2023-03-23T06:00:37;97659.09;;;14.43;55.43
39487;BME280;25173;50.430;18.926;2023-03-23T06:03:49;97654.59;;;14.47;55.59
39487;BME280;25173;50.430;18.926;2023-03-23T06:06:57;97656.88;;;14.54;55.40
39487;BME280;25173;50.430;18.926;2023-03-23T06:09:58;97660.81;;;14.61;55.19
39487;BME280;25173;50.430;18.926;2023-03-23T06:12:59;97653.47;;;14.70;55.04
39487;BME280;25173;50.430;18.926;2023-03-23T06:15:59;97652.69;;;14.79;55.03
39487;BME280;25173;50.430;18.926;2023-03-23T06:19:19;97647.88;;;14.84;54.78
39487;BME280;25173;50.430;18.926;2023-03-23T06:22:28;97644.66;;;14.82;54.61
39487;BME280;25173;50.430;18.926;2023-03-23T06:25:54;97653.06;;;14.86;54.61
39487;BME280;25173;50.430;18.926;2023-03-23T06:28:57;97647.28;;;14.87;54.56
39487;BME280;25173;50.430;18.926;2023-03-23T06:32:01;97642.97;;;14.95;54.62
39487;BME280;25173;50.430;18.926;2023-03-23T06:35:04;97643.63;;;15.00;54.41
39487;BME280;25173;50.430;18.926;2023-03-23T06:38:23;97652.56;;;15.14;54.44
39487;BME280;25173;50.430;18.926;2023-03-23T06:41:28;97644.53;;;15.27;54.07
39487;BME280;25173;50.430;18.926;2023-03-23T06:44:29;97651.19;;;15.34;54.13
39487;BME280;25173;50.430;18.926;2023-03-23T06:47:30;97653.00;;;15.39;53.88
39487;BME280;25173;50.430;18.926;2023-03-23T06:50:31;97649.78;;;15.45;53.84
39487;BME280;25173;50.430;18.926;2023-03-23T06:53:33;97649.31;;;15.52;53.46
39487;BME280;25173;50.430;18.926;2023-03-23T06:56:34;97648.72;;;15.55;53.49
39487;BME280;25173;50.430;18.926;2023-03-23T06:59:35;97649.72;;;15.68;53.35
39487;BME280;25173;50.430;18.926;2023-03-23T07:02:38;97659.72;;;15.72;53.08
39487;BME280;25173;50.430;18.926;2023-03-23T07:05:39;97662.97;;;15.74;52.90
39487;BME280;25173;50.430;18.926;2023-03-23T07:08:41;97652.50;;;15.85;52.95
39487;BME280;25173;50.430;18.926;2023-03-23T07:11:47;97660.88;;;15.88;52.73
39487;BME280;25173;50.430;18.926;2023-03-23T07:15:04;97659.28;;;15.96;52.76
39487;BME280;25173;50.430;18.926;2023-03-23T07:18:06;97660.59;;;15.99;52.39
39487;BME280;25173;50.430;18.926;2023-03-23T07:21:14;97667.84;;;16.03;52.45
39487;BME280;25173;50.430;18.926;2023-03-23T07:24:15;97669.66;;;16.08;52.43
39487;BME280;25173;50.430;18.926;2023-03-23T07:27:35;97674.50;;;16.11;52.13
39487;BME280;25173;50.430;18.926;2023-03-23T07:30:37;97666.56;;;16.18;52.17
39487;BME280;25173;50.430;18.926;2023-03-23T07:33:38;97674.19;;;16.21;51.75
39487;BME280;25173;50.430;18.926;2023-03-23T07:36:39;97676.63;;;16.22;51.74
39487;BME280;25173;50.430;18.926;2023-03-23T07:39:42;97674.50;;;16.28;51.58
39487;BME280;25173;50.430;18.926;2023-03-23T07:42:50;97676.28;;;16.33;51.56
39487;BME280;25173;50.430;18.926;2023-03-23T07:46:00;97677.28;;;16.37;51.37
39487;BME280;25173;50.430;18.926;2023-03-23T07:49:17;97690.66;;;16.47;51.35
39487;BME280;25173;50.430;18.926;2023-03-23T07:52:25;97673.34;;;16.46;51.06
39487;BME280;25173;50.430;18.926;2023-03-23T07:55:27;97669.47;;;16.47;50.84
39487;BME280;25173;50.430;18.926;2023-03-23T07:58:38;97667.88;;;16.46;50.99
39487;BME280;25173;50.430;18.926;2023-03-23T08:01:39;97671.09;;;16.48;50.65
39487;BME280;25173;50.430;18.926;2023-03-23T08:05:00;97670.13;;;16.53;50.84
39487;BME280;25173;50.430;18.926;2023-03-23T08:08:30;97659.97;;;16.62;50.77
39487;BME280;25173;50.430;18.926;2023-03-23T08:12:00;97659.31;;;16.74;50.39
39487;BME280;25173;50.430;18.926;2023-03-23T08:15:19;97663.81;;;16.78;50.40
39487;BME280;25173;50.430;18.926;2023-03-23T08:18:34;97654.94;;;16.81;50.28
39487;BME280;25173;50.430;18.926;2023-03-23T08:21:54;97643.25;;;16.93;50.18
39487;BME280;25173;50.430;18.926;2023-03-23T08:25:32;97643.22;;;17.01;49.78
39487;BME280;25173;50.430;18.926;2023-03-23T08:28:51;97640.25;;;17.15;49.98
39487;BME280;25173;50.430;18.926;2023-03-23T08:32:18;97648.59;;;17.36;49.48
39487;BME280;25173;50.430;18.926;2023-03-23T08:35:42;97652.41;;;17.52;49.36
39487;BME280;25173;50.430;18.926;2023-03-23T08:39:02;97646.84;;;17.61;49.19
39487;BME280;25173;50.430;18.926;2023-03-23T08:42:26;97643.50;;;17.84;48.86
39487;BME280;25173;50.430;18.926;2023-03-23T08:46:05;97649.69;;;18.02;48.61
39487;BME280;25173;50.430;18.926;2023-03-23T08:49:25;97643.63;;;18.09;48.37
39487;BME280;25173;50.430;18.926;2023-03-23T08:52:41;97642.59;;;18.22;46.68
39487;BME280;25173;50.430;18.926;2023-03-23T08:56:07;97643.84;;;18.24;48.01
39487;BME280;25173;50.430;18.926;2023-03-23T08:59:31;97637.88;;;18.22;47.52
39487;BME280;25173;50.430;18.926;2023-03-23T09:02:52;97644.06;;;18.19;47.25
39487;BME280;25173;50.430;18.926;2023-03-23T09:06:00;97644.88;;;18.20;47.58
39487;BME280;25173;50.430;18.926;2023-03-23T09:09:10;97651.47;;;18.28;48.10
39487;BME280;25173;50.430;18.926;2023-03-23T09:12:11;97649.88;;;18.39;47.64
39487;BME280;25173;50.430;18.926;2023-03-23T09:15:14;97654.25;;;18.40;47.39
39487;BME280;25173;50.430;18.926;2023-03-23T09:18:15;97649.44;;;18.37;47.01
39487;BME280;25173;50.430;18.926;2023-03-23T09:21:17;97635.41;;;18.30;47.10
39487;BME280;25173;50.430;18.926;2023-03-23T09:24:18;97646.28;;;18.26;46.90
39487;BME280;25173;50.430;18.926;2023-03-23T09:27:19;97640.09;;;18.29;47.25
39487;BME280;25173;50.430;18.926;2023-03-23T09:30:20;97654.25;;;18.40;47.15
39487;BME280;25173;50.430;18.926;2023-03-23T09:33:21;97664.63;;;18.43;47.07
39487;BME280;25173;50.430;18.926;2023-03-23T09:36:22;97644.56;;;18.54;47.00
39487;BME280;25173;50.430;18.926;2023-03-23T09:39:22;97674.06;;;18.63;46.45
39487;BME280;25173;50.430;18.926;2023-03-23T09:49:00;97642.81;;;19.16;45.94
39487;BME280;25173;50.430;18.926;2023-03-23T09:52:14;97638.59;;;19.43;44.92
39487;BME280;25173;50.430;18.926;2023-03-23T09:55:17;97616.16;;;19.56;44.16
39487;BME280;25173;50.430;18.926;2023-03-23T09:58:26;97625.50;;;19.64;44.22
39487;BME280;25173;50.430;18.926;2023-03-23T10:01:38;97637.72;;;19.63;43.10
39487;BME280;25173;50.430;18.926;2023-03-23T10:04:48;97628.50;;;19.71;43.11
39487;BME280;25173;50.430;18.926;2023-03-23T10:07:49;97618.91;;;19.81;43.34
39487;BME280;25173;50.430;18.926;2023-03-23T10:11:01;97615.44;;;19.96;42.58
39487;BME280;25173;50.430;18.926;2023-03-23T10:14:17;97604.72;;;20.06;41.67
39487;BME280;25173;50.430;18.926;2023-03-23T10:17:53;97607.66;;;20.26;41.92
39487;BME280;25173;50.430;18.926;2023-03-23T10:21:00;97601.34;;;20.53;42.32
39487;BME280;25173;50.430;18.926;2023-03-23T10:24:04;97601.50;;;20.72;41.39
39487;BME280;25173;50.430;18.926;2023-03-23T10:27:18;97596.50;;;20.78;39.39
39487;BME280;25173;50.430;18.926;2023-03-23T10:30:43;97600.88;;;20.79;39.68
39487;BME280;25173;50.430;18.926;2023-03-23T10:33:48;97623.53;;;20.69;40.39
39487;BME280;25173;50.430;18.926;2023-03-23T10:37:03;97620.22;;;20.63;39.85
39487;BME280;25173;50.430;18.926;2023-03-23T10:40:14;97608.81;;;20.65;40.76
39487;BME280;25173;50.430;18.926;2023-03-23T10:43:16;97609.94;;;20.64;40.67
39487;BME280;25173;50.430;18.926;2023-03-23T10:49:54;97625.97;;;20.30;40.75
39487;BME280;25173;50.430;18.926;2023-03-23T10:52:58;97615.06;;;20.09;41.04
39487;BME280;25173;50.430;18.926;2023-03-23T10:55:59;97613.84;;;19.95;41.22
39487;BME280;25173;50.430;18.926;2023-03-23T11:02:17;97617.06;;;19.97;41.68
39487;BME280;25173;50.430;18.926;2023-03-23T11:05:20;97620.50;;;20.06;42.22
39487;BME280;25173;50.430;18.926;2023-03-23T11:08:34;97635.00;;;20.03;41.15
39487;BME280;25173;50.430;18.926;2023-03-23T11:11:40;97623.53;;;19.89;41.42
39487;BME280;25173;50.430;18.926;2023-03-23T11:14:43;97628.59;;;19.87;42.03
39487;BME280;25173;50.430;18.926;2023-03-23T11:17:55;97629.28;;;19.96;41.52
39487;BME280;25173;50.430;18.926;2023-03-23T11:20:58;97620.72;;;20.01;41.93
39487;BME280;25173;50.430;18.926;2023-03-23T11:23:59;97623.34;;;20.09;41.78
39487;BME280;25173;50.430;18.926;2023-03-23T11:27:00;97623.56;;;20.16;41.83
39487;BME280;25173;50.430;18.926;2023-03-23T11:30:23;97635.31;;;20.26;40.57
39487;BME280;25173;50.430;18.926;2023-03-23T11:33:29;97618.03;;;20.29;41.21
39487;BME280;25173;50.430;18.926;2023-03-23T11:36:36;97619.75;;;20.33;41.37
39487;BME280;25173;50.430;18.926;2023-03-23T11:42:57;97645.72;;;20.57;40.48
39487;BME280;25173;50.430;18.926;2023-03-23T11:49:04;97623.47;;;20.81;40.75
39487;BME280;25173;50.430;18.926;2023-03-23T11:52:21;97612.06;;;20.98;40.35
39487;BME280;25173;50.430;18.926;2023-03-23T11:55:27;97610.44;;;21.25;40.66
39487;BME280;25173;50.430;18.926;2023-03-23T11:58:28;97608.81;;;21.40;40.50
39487;BME280;25173;50.430;18.926;2023-03-23T12:04:57;97604.09;;;21.24;40.05
39487;BME280;25173;50.430;18.926;2023-03-23T12:14:38;97609.72;;;21.79;39.40
39487;BME280;25173;50.430;18.926;2023-03-23T12:21:00;97606.25;;;22.17;37.61
39487;BME280;25173;50.430;18.926;2023-03-23T12:27:32;97608.03;;;22.25;37.90
39487;BME280;25173;50.430;18.926;2023-03-23T12:30:57;97597.53;;;22.15;36.89
39487;BME280;25173;50.430;18.926;2023-03-23T12:44:11;97602.34;;;21.67;39.57
39487;BME280;25173;50.430;18.926;2023-03-23T12:47:21;97602.63;;;21.62;39.87
39487;BME280;25173;50.430;18.926;2023-03-23T12:50:39;97615.69;;;21.61;39.71
39487;BME280;25173;50.430;18.926;2023-03-23T12:53:48;97613.72;;;21.62;39.57
39487;BME280;25173;50.430;18.926;2023-03-23T12:57:04;97609.22;;;21.57;39.34
39487;BME280;25173;50.430;18.926;2023-03-23T13:00:24;97598.94;;;21.58;39.44
39487;BME280;25173;50.430;18.926;2023-03-23T13:03:39;97613.53;;;21.55;40.07
39487;BME280;25173;50.430;18.926;2023-03-23T13:06:45;97600.03;;;21.53;40.21
39487;BME280;25173;50.430;18.926;2023-03-23T13:10:21;97593.00;;;21.56;39.74
39487;BME280;25173;50.430;18.926;2023-03-23T13:13:39;97584.38;;;21.61;39.67
39487;BME280;25173;50.430;18.926;2023-03-23T13:19:52;97601.81;;;21.61;39.92
39487;BME280;25173;50.430;18.926;2023-03-23T13:26:17;97578.16;;;21.48;39.93
39487;BME280;25173;50.430;18.926;2023-03-23T13:29:22;97573.03;;;21.50;39.64
39487;BME280;25173;50.430;18.926;2023-03-23T13:32:36;97574.19;;;21.65;39.53
39487;BME280;25173;50.430;18.926;2023-03-23T13:35:40;97582.78;;;21.60;39.73
39487;BME280;25173;50.430;18.926;2023-03-23T13:38:47;97579.94;;;21.41;39.54
39487;BME280;25173;50.430;18.926;2023-03-23T13:48:27;97573.41;;;21.49;39.68
39487;BME280;25173;50.430;18.926;2023-03-23T13:54:41;97557.19;;;22.01;39.05
39487;BME280;25173;50.430;18.926;2023-03-23T13:57:56;97567.50;;;22.20;38.50
39487;BME280;25173;50.430;18.926;2023-03-23T14:01:11;97569.31;;;22.32;38.41
39487;BME280;25173;50.430;18.926;2023-03-23T14:04:17;97570.56;;;22.34;38.74
39487;BME280;25173;50.430;18.926;2023-03-23T14:07:18;97581.31;;;22.36;38.82
39487;BME280;25173;50.430;18.926;2023-03-23T14:10:19;97576.50;;;22.33;38.76
39487;BME280;25173;50.430;18.926;2023-03-23T14:13:24;97576.03;;;22.31;38.78
39487;BME280;25173;50.430;18.926;2023-03-23T14:16:32;97583.50;;;22.27;39.15
39487;BME280;25173;50.430;18.926;2023-03-23T14:19:38;97570.59;;;22.15;39.20
39487;BME280;25173;50.430;18.926;2023-03-23T14:22:40;97570.50;;;22.12;39.48
39487;BME280;25173;50.430;18.926;2023-03-23T14:25:41;97573.56;;;22.06;39.40
39487;BME280;25173;50.430;18.926;2023-03-23T14:28:44;97572.50;;;21.95;39.11
39487;BME280;25173;50.430;18.926;2023-03-23T14:31:45;97565.19;;;21.87;39.42
39487;BME280;25173;50.430;18.926;2023-03-23T14:34:49;97568.09;;;21.94;39.49
39487;BME280;25173;50.430;18.926;2023-03-23T14:37:50;97560.59;;;21.95;39.14
39487;BME280;25173;50.430;18.926;2023-03-23T14:40:51;97569.72;;;21.95;39.39
39487;BME280;25173;50.430;18.926;2023-03-23T14:43:52;97564.91;;;21.92;39.40
39487;BME280;25173;50.430;18.926;2023-03-23T14:46:53;97563.16;;;21.84;39.16
39487;BME280;25173;50.430;18.926;2023-03-23T14:49:58;97559.06;;;21.78;39.49
39487;BME280;25173;50.430;18.926;2023-03-23T14:53:15;97571.22;;;21.74;39.50
39487;BME280;25173;50.430;18.926;2023-03-23T14:56:18;97567.03;;;21.64;39.64
39487;BME280;25173;50.430;18.926;2023-03-23T14:59:21;97576.88;;;21.61;39.68
39487;BME280;25173;50.430;18.926;2023-03-23T15:05:29;97576.53;;;21.47;39.87
39487;BME280;25173;50.430;18.926;2023-03-23T15:08:33;97569.69;;;21.41;39.76
39487;BME280;25173;50.430;18.926;2023-03-23T15:11:36;97556.44;;;21.35;39.73
39487;BME280;25173;50.430;18.926;2023-03-23T15:14:46;97565.47;;;21.32;39.96
39487;BME280;25173;50.430;18.926;2023-03-23T15:17:47;97561.81;;;21.27;39.85
39487;BME280;25173;50.430;18.926;2023-03-23T15:20:49;97556.19;;;21.24;40.29
39487;BME280;25173;50.430;18.926;2023-03-23T15:23:49;97555.66;;;21.18;40.08
39487;BME280;25173;50.430;18.926;2023-03-23T15:26:50;97549.81;;;21.08;40.27
39487;BME280;25173;50.430;18.926;2023-03-23T15:30:28;97542.66;;;21.07;40.15
39487;BME280;25173;50.430;18.926;2023-03-23T15:33:19;97544.63;;;21.06;40.24
39487;BME280;25173;50.430;18.926;2023-03-23T15:36:31;97542.59;;;21.03;40.38
39487;BME280;25173;50.430;18.926;2023-03-23T15:39:33;97545.53;;;20.95;40.61
39487;BME280;25173;50.430;18.926;2023-03-23T15:42:34;97547.41;;;20.90;40.36
39487;BME280;25173;50.430;18.926;2023-03-23T15:45:35;97548.59;;;20.89;40.77
39487;BME280;25173;50.430;18.926;2023-03-23T15:48:47;97548.47;;;20.86;40.65
39487;BME280;25173;50.430;18.926;2023-03-23T15:51:48;97543.91;;;20.78;40.61
39487;BME280;25173;50.430;18.926;2023-03-23T15:54:49;97543.03;;;20.74;40.86
39487;BME280;25173;50.430;18.926;2023-03-23T15:57:50;97547.91;;;20.65;40.90
39487;BME280;25173;50.430;18.926;2023-03-23T16:00:51;97553.63;;;20.56;40.87
39487;BME280;25173;50.430;18.926;2023-03-23T16:03:58;97555.28;;;20.45;40.85
39487;BME280;25173;50.430;18.926;2023-03-23T16:07:00;97563.75;;;20.36;41.07
39487;BME280;25173;50.430;18.926;2023-03-23T16:10:01;97568.25;;;20.29;41.24
39487;BME280;25173;50.430;18.926;2023-03-23T16:13:03;97555.03;;;20.22;40.63
39487;BME280;25173;50.430;18.926;2023-03-23T16:16:06;97567.94;;;20.18;40.92
39487;BME280;25173;50.430;18.926;2023-03-23T16:19:12;97566.31;;;20.17;40.86
39487;BME280;25173;50.430;18.926;2023-03-23T16:22:13;97568.78;;;20.06;40.89
39487;BME280;25173;50.430;18.926;2023-03-23T16:25:14;97569.38;;;20.00;40.99
39487;BME280;25173;50.430;18.926;2023-03-23T16:28:15;97567.31;;;19.97;41.01
39487;BME280;25173;50.430;18.926;2023-03-23T16:31:16;97569.38;;;20.00;41.06
39487;BME280;25173;50.430;18.926;2023-03-23T16:34:17;97586.41;;;20.02;41.19
39487;BME280;25173;50.430;18.926;2023-03-23T16:37:17;97583.09;;;19.96;41.38
39487;BME280;25173;50.430;18.926;2023-03-23T16:40:19;97570.75;;;19.94;41.61
39487;BME280;25173;50.430;18.926;2023-03-23T16:43:20;97574.91;;;19.88;41.62
39487;BME280;25173;50.430;18.926;2023-03-23T16:46:20;97574.13;;;19.87;41.87
39487;BME280;25173;50.430;18.926;2023-03-23T16:49:21;97571.81;;;19.89;41.93
39487;BME280;25173;50.430;18.926;2023-03-23T16:52:22;97572.63;;;19.90;42.34
39487;BME280;25173;50.430;18.926;2023-03-23T16:55:22;97570.53;;;19.87;42.41
39487;BME280;25173;50.430;18.926;2023-03-23T16:58:26;97573.09;;;19.80;42.58
39487;BME280;25173;50.430;18.926;2023-03-23T17:01:27;97586.69;;;19.72;43.09
39487;BME280;25173;50.430;18.926;2023-03-23T17:04:29;97585.31;;;19.66;43.34
39487;BME280;25173;50.430;18.926;2023-03-23T17:07:29;97589.47;;;19.60;43.50
39487;BME280;25173;50.430;18.926;2023-03-23T17:10:30;97590.53;;;19.56;43.57
39487;BME280;25173;50.430;18.926;2023-03-23T17:13:31;97589.59;;;19.52;43.71
39487;BME280;25173;50.430;18.926;2023-03-23T17:16:32;97586.91;;;19.43;43.75
39487;BME280;25173;50.430;18.926;2023-03-23T17:19:32;97591.53;;;19.39;43.97
39487;BME280;25173;50.430;18.926;2023-03-23T17:22:33;97603.97;;;19.33;44.06
39487;BME280;25173;50.430;18.926;2023-03-23T17:25:33;97597.41;;;19.25;44.40
39487;BME280;25173;50.430;18.926;2023-03-23T17:28:34;97591.66;;;19.18;44.87
39487;BME280;25173;50.430;18.926;2023-03-23T17:31:35;97593.13;;;19.16;44.97
39487;BME280;25173;50.430;18.926;2023-03-23T17:34:36;97579.66;;;19.14;44.62
39487;BME280;25173;50.430;18.926;2023-03-23T17:37:37;97578.63;;;19.07;44.96
39487;BME280;25173;50.430;18.926;2023-03-23T17:40:38;97586.00;;;19.03;44.90
39487;BME280;25173;50.430;18.926;2023-03-23T17:43:39;97583.00;;;18.95;44.63